Quick Links (Output Below):   Max & Min Temps   /   Climate Reports   /   Zone Forecasts
River Forecasts   /   Forestry Forecasts   /   Aviation Forecasts   /   Radars   /   Features

Terminal Aerodrome Forecast (Hot Springs)

Pick a Site:
Arkadelphia | El Dorado | Fayetteville | Fort Smith | Harrison | Highfill | Hot Springs | Jonesboro
Little Rock | Monticello | Mountain Home | Pine Bluff | Texarkana
 Forecast 

KHOT 232322Z 2400/2424 19006KT P6SM SCT250
     FM240800 21003KT 4SM BR SCT250
     FM241400 23006KT P6SM SCT250=


 Latest METARs (Observations) 
How to Decode METARs
04Z KHOT 240353Z AUTO 14004KT 10SM CLR 27/23 A3013 RMK AO2 SLP196
         T02720233
         
03Z KHOT 240253Z AUTO 07004KT 10SM CLR 26/23 A3012 RMK AO2 SLP193
         T02560233 53006
         
02Z KHOT 240153Z AUTO 15003KT 10SM CLR 28/23 A3011 RMK AO2 SLP188
         T02780233
         
01Z KHOT 240053Z AUTO 16003KT 10SM CLR 28/23 A3010 RMK AO2 SLP187
         T02830233
         
00Z KHOT 232353Z AUTO 19004KT 10SM CLR 30/23 A3010 RMK AO2 SLP187
         T03000228 10322 20289 56014
         
***** Today's Observations (Above) *****


23Z KHOT 232253Z AUTO 19007KT 10SM FEW036 32/23 A3012 RMK AO2 SLP192
         T03170228
         
22Z KHOT 232153Z AUTO 19004KT 10SM SCT041 32/22 A3013 RMK AO2 SLP195
         T03170222
         
21Z KHOT 232053Z AUTO 22006KT 10SM FEW036 31/22 A3014 RMK AO2 SLP201
         T03110217 56018
         
20Z KHOT 231953Z AUTO 19008KT 10SM FEW034 32/22 A3016 RMK AO2 SLP206
         T03170222
         
19Z KHOT 231853Z AUTO VRB04KT 10SM FEW030 30/22 A3018 RMK AO2 SLP212
         T03000222
         
***** Yesterday's Observations (Above) *****


Back to Main Page
http://www.srh.noaa.gov/lzk/qfcst.php

USA.gov is the U.S. government's official web portal to all federal, state and local government web resources and services.